createdAt,value
2022-10-05T00:02:03.663Z,10.00
2022-10-05T00:04:36.768Z,9.50
2022-10-05T00:07:15.976Z,9.50
2022-10-05T00:09:46.071Z,9.60
2022-10-05T00:12:20.577Z,9.70
2022-10-05T00:14:53.690Z,9.60
2022-10-05T00:17:27.317Z,9.60
2022-10-05T00:19:56.271Z,9.60
2022-10-05T00:22:30.389Z,9.50
2022-10-05T00:25:01.650Z,9.50
2022-10-05T00:27:35.362Z,9.50
2022-10-05T00:30:15.337Z,9.60
2022-10-05T00:32:45.252Z,9.50
2022-10-05T00:35:15.521Z,9.50
2022-10-05T00:37:45.033Z,9.50
2022-10-05T00:40:24.088Z,9.40
2022-10-05T00:42:59.955Z,9.40
2022-10-05T00:45:34.588Z,9.50
2022-10-05T00:48:15.815Z,9.50
2022-10-05T00:51:22.935Z,9.50
2022-10-05T00:54:02.976Z,9.50
2022-10-05T00:57:10.252Z,9.60
2022-10-05T00:59:50.432Z,9.50
2022-10-05T01:02:34.402Z,9.40
2022-10-05T01:05:12.156Z,9.50
2022-10-05T01:07:52.186Z,9.50
2022-10-05T01:10:29.151Z,9.40
2022-10-05T01:13:13.665Z,9.50
2022-10-05T01:15:51.077Z,9.60
2022-10-05T01:18:28.459Z,9.30
2022-10-05T01:21:03.587Z,9.50
2022-10-05T01:24:02.559Z,9.40
2022-10-05T01:26:50.799Z,9.40
2022-10-05T01:29:26.812Z,9.40
2022-10-05T01:32:01.449Z,9.40
2022-10-05T01:34:39.396Z,9.40
2022-10-05T01:37:14.572Z,9.30
2022-10-05T01:39:53.136Z,9.30
2022-10-05T01:42:31.747Z,9.30
2022-10-05T01:45:08.603Z,9.30
2022-10-05T01:47:45.332Z,9.40
2022-10-05T01:50:22.286Z,9.40
2022-10-05T01:52:57.721Z,9.40
2022-10-05T01:55:36.571Z,9.40
2022-10-05T01:58:13.041Z,9.40
2022-10-05T02:00:51.951Z,9.40
2022-10-05T02:03:25.304Z,9.40
2022-10-05T02:05:59.658Z,9.50
2022-10-05T02:08:33.631Z,9.50
2022-10-05T02:11:07.781Z,9.50
2022-10-05T02:13:40.661Z,9.50
2022-10-05T02:16:18.560Z,9.50
2022-10-05T02:18:51.960Z,9.50
2022-10-05T02:21:22.605Z,9.50
2022-10-05T02:23:56.739Z,9.50
2022-10-05T02:26:27.362Z,9.40
2022-10-05T02:29:00.995Z,9.50
2022-10-05T02:31:39.612Z,9.40
2022-10-05T02:34:28.358Z,9.40
2022-10-05T02:37:29.339Z,9.60
2022-10-05T02:40:10.397Z,9.40
2022-10-05T02:42:49.172Z,9.40
2022-10-05T02:45:26.463Z,9.40
2022-10-05T02:48:06.551Z,9.40
2022-10-05T02:50:39.140Z,9.40
2022-10-05T02:53:22.507Z,9.70
2022-10-05T02:56:05.196Z,9.40
2022-10-05T02:58:40.480Z,9.40
2022-10-05T03:01:23.835Z,9.40
2022-10-05T03:04:05.810Z,9.40
2022-10-05T03:06:41.851Z,9.40
2022-10-05T03:09:12.022Z,9.40
2022-10-05T03:11:48.241Z,9.40
2022-10-05T03:14:22.864Z,9.40
2022-10-05T03:17:05.158Z,9.40
2022-10-05T03:20:01.237Z,9.40
2022-10-05T03:22:48.253Z,9.40
2022-10-05T03:25:42.096Z,9.40
2022-10-05T03:28:18.593Z,9.40
2022-10-05T03:31:01.835Z,9.40
2022-10-05T03:33:42.582Z,9.40
2022-10-05T03:36:23.982Z,9.50
2022-10-05T03:39:03.714Z,9.40
2022-10-05T03:41:41.549Z,9.40
2022-10-05T03:44:27.200Z,9.40
2022-10-05T03:47:12.832Z,9.40
2022-10-05T03:49:54.086Z,9.40
2022-10-05T03:52:29.042Z,9.40
2022-10-05T03:55:02.532Z,9.40
2022-10-05T03:57:37.309Z,9.40
2022-10-05T04:00:13.164Z,9.40
2022-10-05T04:02:56.028Z,9.40
2022-10-05T04:05:28.635Z,9.40
2022-10-05T04:08:04.369Z,9.40
2022-10-05T04:10:40.903Z,9.40
2022-10-05T04:13:17.815Z,9.40
2022-10-05T04:15:57.420Z,9.40
2022-10-05T04:18:31.259Z,9.40
2022-10-05T04:21:08.257Z,9.40
2022-10-05T04:23:49.365Z,9.40
2022-10-05T04:26:26.481Z,9.30
2022-10-05T04:29:00.371Z,9.30
2022-10-05T04:31:46.437Z,9.30
2022-10-05T04:34:31.570Z,9.30
2022-10-05T04:37:04.871Z,9.30
2022-10-05T04:39:47.148Z,9.30
2022-10-05T04:42:28.535Z,9.30
2022-10-05T04:45:10.875Z,9.30
2022-10-05T04:48:25.797Z,9.30
2022-10-05T04:51:08.490Z,9.40
2022-10-05T04:53:44.184Z,9.40
2022-10-05T04:56:21.068Z,9.50
2022-10-05T04:59:05.820Z,9.50
2022-10-05T05:01:49.059Z,9.50
2022-10-05T05:04:35.615Z,9.50
2022-10-05T05:07:21.645Z,9.50
2022-10-05T05:10:20.055Z,9.50
2022-10-05T05:13:02.379Z,9.60
2022-10-05T05:15:46.842Z,9.60
2022-10-05T05:18:53.627Z,9.60
2022-10-05T05:21:34.491Z,9.70
2022-10-05T05:24:18.298Z,9.70
2022-10-05T05:27:11.364Z,9.70
2022-10-05T05:29:57.277Z,9.80
2022-10-05T05:32:37.686Z,9.80
2022-10-05T05:35:29.752Z,9.90
2022-10-05T05:38:11.712Z,10.00
2022-10-05T05:40:49.366Z,10.10
2022-10-05T05:43:26.432Z,10.10
2022-10-05T05:46:09.983Z,10.10
2022-10-05T05:48:41.770Z,10.20
2022-10-05T05:51:19.467Z,10.20
2022-10-05T05:53:54.771Z,10.20
2022-10-05T05:56:29.130Z,10.30
2022-10-05T05:59:02.735Z,10.30
2022-10-05T06:01:43.578Z,10.30
2022-10-05T06:04:25.778Z,10.30
2022-10-05T06:07:04.700Z,10.30
2022-10-05T06:09:40.938Z,10.40
2022-10-05T06:12:22.602Z,10.40
2022-10-05T06:14:58.556Z,10.40
2022-10-05T06:17:34.940Z,10.50
2022-10-05T06:20:07.635Z,10.50
2022-10-05T06:22:43.292Z,10.50
2022-10-05T06:25:30.174Z,10.60
2022-10-05T06:28:04.364Z,10.50
2022-10-05T06:30:47.610Z,10.60
2022-10-05T06:33:34.233Z,10.60
2022-10-05T06:36:16.625Z,10.70
2022-10-05T06:39:06.628Z,10.70
2022-10-05T06:41:54.933Z,10.60
2022-10-05T06:44:54.412Z,10.80
2022-10-05T06:50:46.039Z,10.80
2022-10-05T06:53:42.168Z,10.70
2022-10-05T06:56:17.236Z,11.00
2022-10-05T06:58:56.176Z,11.40
2022-10-05T07:01:45.630Z,11.00
2022-10-05T07:04:37.138Z,11.20
2022-10-05T07:07:19.653Z,10.90
2022-10-05T07:10:06.158Z,11.20
2022-10-05T07:12:54.497Z,11.20
2022-10-05T07:15:41.967Z,10.70
2022-10-05T07:18:42.645Z,11.30
2022-10-05T07:21:20.225Z,11.30
2022-10-05T07:26:41.180Z,11.20
2022-10-05T07:29:27.942Z,11.40
2022-10-05T07:32:09.381Z,11.60
2022-10-05T07:34:57.484Z,11.30
2022-10-05T07:37:56.007Z,11.60
2022-10-05T07:40:43.061Z,11.50
2022-10-05T07:56:38.252Z,12.10
2022-10-05T09:00:30.693Z,12.80
2022-10-05T11:51:39.233Z,14.50
2022-10-05T13:27:30.845Z,13.70
2022-10-05T13:30:17.317Z,13.50
2022-10-05T13:32:54.238Z,13.70
2022-10-05T13:40:51.488Z,13.70
2022-10-05T13:51:52.934Z,13.60
2022-10-05T13:59:49.529Z,13.60
2022-10-05T14:05:06.156Z,13.80
2022-10-05T14:07:42.560Z,13.60
2022-10-05T15:11:53.702Z,13.60
2022-10-05T15:14:31.649Z,13.60
2022-10-05T15:17:05.146Z,13.00
2022-10-05T15:19:52.944Z,13.50
2022-10-05T15:22:33.025Z,13.50
2022-10-05T15:25:11.238Z,13.60
2022-10-05T15:28:02.101Z,13.50
2022-10-05T15:30:37.375Z,13.30
2022-10-05T15:36:06.567Z,13.20
2022-10-05T15:38:48.634Z,13.30
2022-10-05T15:44:06.527Z,13.30
2022-10-05T15:49:25.450Z,13.30
2022-10-05T15:52:04.909Z,13.30
2022-10-05T15:55:07.126Z,13.30
2022-10-05T16:11:26.727Z,13.10
2022-10-05T16:14:12.911Z,13.20
2022-10-05T23:08:35.052Z,12.50
2022-10-05T23:21:28.480Z,12.50
2022-10-05T23:26:32.471Z,12.40
2022-10-05T23:29:03.406Z,12.40
2022-10-05T23:54:29.240Z,12.40
2022-10-05T23:57:00.369Z,12.40
2022-10-05T23:59:29.328Z,12.40
